sensor_id;sensor_type;location;lat;lon;timestamp;temperature;humidity
24744;DHT22;12844;52.110;5.548;2023-05-07T00:01:16;21.70;59.00
24744;DHT22;12844;52.110;5.548;2023-05-07T00:03:42;21.70;59.00
24744;DHT22;12844;52.110;5.548;2023-05-07T00:06:07;21.70;59.00
24744;DHT22;12844;52.110;5.548;2023-05-07T00:08:33;21.60;58.90
24744;DHT22;12844;52.110;5.548;2023-05-07T00:10:58;21.70;59.00
24744;DHT22;12844;52.110;5.548;2023-05-07T00:13:24;21.60;58.90
24744;DHT22;12844;52.110;5.548;2023-05-07T00:15:50;21.60;58.90
24744;DHT22;12844;52.110;5.548;2023-05-07T00:18:15;21.60;58.90
24744;DHT22;12844;52.110;5.548;2023-05-07T00:20:41;21.60;58.80
24744;DHT22;12844;52.110;5.548;2023-05-07T00:23:06;21.60;58.80
24744;DHT22;12844;52.110;5.548;2023-05-07T00:25:32;21.60;58.80
24744;DHT22;12844;52.110;5.548;2023-05-07T00:27:57;21.60;58.90
24744;DHT22;12844;52.110;5.548;2023-05-07T00:30:28;21.60;58.80
24744;DHT22;12844;52.110;5.548;2023-05-07T00:32:54;21.60;58.90
24744;DHT22;12844;52.110;5.548;2023-05-07T00:35:20;21.60;58.90
24744;DHT22;12844;52.110;5.548;2023-05-07T00:37:45;21.50;58.80
24744;DHT22;12844;52.110;5.548;2023-05-07T00:40:11;21.60;58.90
24744;DHT22;12844;52.110;5.548;2023-05-07T00:42:36;21.50;58.90
24744;DHT22;12844;52.110;5.548;2023-05-07T00:45:02;21.60;58.90
24744;DHT22;12844;52.110;5.548;2023-05-07T00:47:28;21.60;58.90
24744;DHT22;12844;52.110;5.548;2023-05-07T00:49:53;21.60;58.90
24744;DHT22;12844;52.110;5.548;2023-05-07T00:52:21;21.60;58.90
24744;DHT22;12844;52.110;5.548;2023-05-07T00:54:49;21.60;58.90
24744;DHT22;12844;52.110;5.548;2023-05-07T00:57:14;21.60;58.90
24744;DHT22;12844;52.110;5.548;2023-05-07T00:59:41;21.60;58.90
24744;DHT22;12844;52.110;5.548;2023-05-07T01:02:07;21.60;58.90
24744;DHT22;12844;52.110;5.548;2023-05-07T01:04:32;21.60;58.90
24744;DHT22;12844;52.110;5.548;2023-05-07T01:06:59;21.50;58.80
24744;DHT22;12844;52.110;5.548;2023-05-07T01:09:26;21.60;58.90
24744;DHT22;12844;52.110;5.548;2023-05-07T01:11:53;21.50;59.50
24744;DHT22;12844;52.110;5.548;2023-05-07T01:14:20;21.50;58.90
24744;DHT22;12844;52.110;5.548;2023-05-07T01:16:46;21.50;58.90
24744;DHT22;12844;52.110;5.548;2023-05-07T01:19:12;21.50;58.90
24744;DHT22;12844;52.110;5.548;2023-05-07T01:21:45;21.50;58.90
24744;DHT22;12844;52.110;5.548;2023-05-07T01:24:11;21.50;58.90
24744;DHT22;12844;52.110;5.548;2023-05-07T01:26:39;21.50;58.90
24744;DHT22;12844;52.110;5.548;2023-05-07T01:29:05;21.50;58.90
24744;DHT22;12844;52.110;5.548;2023-05-07T01:31:32;21.50;58.90
24744;DHT22;12844;52.110;5.548;2023-05-07T01:33:59;21.50;58.90
24744;DHT22;12844;52.110;5.548;2023-05-07T01:36:26;21.50;58.90
24744;DHT22;12844;52.110;5.548;2023-05-07T01:38:53;21.50;58.90
24744;DHT22;12844;52.110;5.548;2023-05-07T01:41:19;21.50;58.80
24744;DHT22;12844;52.110;5.548;2023-05-07T01:43:46;21.50;58.80
24744;DHT22;12844;52.110;5.548;2023-05-07T01:46:13;21.50;58.80
24744;DHT22;12844;52.110;5.548;2023-05-07T01:48:40;21.50;58.90
24744;DHT22;12844;52.110;5.548;2023-05-07T01:51:06;21.50;58.80
24744;DHT22;12844;52.110;5.548;2023-05-07T01:53:39;21.50;58.80
24744;DHT22;12844;52.110;5.548;2023-05-07T01:56:06;21.40;58.80
24744;DHT22;12844;52.110;5.548;2023-05-07T01:58:31;21.50;58.80
24744;DHT22;12844;52.110;5.548;2023-05-07T02:00:57;21.50;58.80
24744;DHT22;12844;52.110;5.548;2023-05-07T02:03:22;21.40;58.80
24744;DHT22;12844;52.110;5.548;2023-05-07T02:05:48;21.40;58.80
24744;DHT22;12844;52.110;5.548;2023-05-07T02:08:13;21.40;58.80
24744;DHT22;12844;52.110;5.548;2023-05-07T02:10:39;21.40;58.80
24744;DHT22;12844;52.110;5.548;2023-05-07T02:13:05;21.40;58.80
24744;DHT22;12844;52.110;5.548;2023-05-07T02:15:30;21.40;58.80
24744;DHT22;12844;52.110;5.548;2023-05-07T02:18:04;21.40;58.80
24744;DHT22;12844;52.110;5.548;2023-05-07T02:20:30;21.40;58.80
24744;DHT22;12844;52.110;5.548;2023-05-07T02:22:55;21.40;58.80
24744;DHT22;12844;52.110;5.548;2023-05-07T02:25:21;21.40;58.80
24744;DHT22;12844;52.110;5.548;2023-05-07T02:27:46;21.40;58.80
24744;DHT22;12844;52.110;5.548;2023-05-07T02:30:14;21.40;58.80
24744;DHT22;12844;52.110;5.548;2023-05-07T02:32:39;21.40;58.80
24744;DHT22;12844;52.110;5.548;2023-05-07T02:35:05;21.40;58.80
24744;DHT22;12844;52.110;5.548;2023-05-07T02:37:31;21.40;58.80
24744;DHT22;12844;52.110;5.548;2023-05-07T02:39:56;21.40;58.80
24744;DHT22;12844;52.110;5.548;2023-05-07T02:42:22;21.40;58.80
24744;DHT22;12844;52.110;5.548;2023-05-07T02:44:47;21.40;58.80
24744;DHT22;12844;52.110;5.548;2023-05-07T02:47:14;21.40;58.80
24744;DHT22;12844;52.110;5.548;2023-05-07T02:49:40;21.40;58.80
24744;DHT22;12844;52.110;5.548;2023-05-07T02:52:06;21.30;58.70
24744;DHT22;12844;52.110;5.548;2023-05-07T02:54:32;21.40;58.80
24744;DHT22;12844;52.110;5.548;2023-05-07T02:56:58;21.40;58.80
24744;DHT22;12844;52.110;5.548;2023-05-07T02:59:23;21.40;58.70
24744;DHT22;12844;52.110;5.548;2023-05-07T03:01:49;21.40;58.70
24744;DHT22;12844;52.110;5.548;2023-05-07T03:04:15;21.40;58.80
24744;DHT22;12844;52.110;5.548;2023-05-07T03:06:40;21.40;58.80
24744;DHT22;12844;52.110;5.548;2023-05-07T03:09:06;21.30;58.70
24744;DHT22;12844;52.110;5.548;2023-05-07T03:11:32;21.30;58.70
24744;DHT22;12844;52.110;5.548;2023-05-07T03:13:57;21.30;58.70
24744;DHT22;12844;52.110;5.548;2023-05-07T03:16:23;21.30;58.70
24744;DHT22;12844;52.110;5.548;2023-05-07T03:18:48;21.30;58.70
24744;DHT22;12844;52.110;5.548;2023-05-07T03:21:14;21.30;58.70
24744;DHT22;12844;52.110;5.548;2023-05-07T03:23:40;21.30;58.70
24744;DHT22;12844;52.110;5.548;2023-05-07T03:26:05;21.30;58.70
24744;DHT22;12844;52.110;5.548;2023-05-07T03:28:31;21.30;58.70
24744;DHT22;12844;52.110;5.548;2023-05-07T03:30:56;21.30;58.70
24744;DHT22;12844;52.110;5.548;2023-05-07T03:33:22;21.30;58.70
24744;DHT22;12844;52.110;5.548;2023-05-07T03:35:47;21.30;58.70
24744;DHT22;12844;52.110;5.548;2023-05-07T03:38:13;21.30;58.70
24744;DHT22;12844;52.110;5.548;2023-05-07T03:40:39;21.30;58.70
24744;DHT22;12844;52.110;5.548;2023-05-07T03:43:05;21.30;58.70
24744;DHT22;12844;52.110;5.548;2023-05-07T03:45:30;21.30;58.70
24744;DHT22;12844;52.110;5.548;2023-05-07T03:47:56;21.30;58.70
24744;DHT22;12844;52.110;5.548;2023-05-07T03:50:21;21.30;58.70
24744;DHT22;12844;52.110;5.548;2023-05-07T03:52:47;21.30;58.70
24744;DHT22;12844;52.110;5.548;2023-05-07T03:55:12;21.30;58.60
24744;DHT22;12844;52.110;5.548;2023-05-07T03:57:38;21.30;58.70
24744;DHT22;12844;52.110;5.548;2023-05-07T04:00:03;21.20;58.60
24744;DHT22;12844;52.110;5.548;2023-05-07T04:02:30;21.30;58.70
24744;DHT22;12844;52.110;5.548;2023-05-07T04:04:55;21.30;58.70
24744;DHT22;12844;52.110;5.548;2023-05-07T04:07:21;21.30;58.60
24744;DHT22;12844;52.110;5.548;2023-05-07T04:09:47;21.20;58.70
24744;DHT22;12844;52.110;5.548;2023-05-07T04:12:12;21.20;58.60
24744;DHT22;12844;52.110;5.548;2023-05-07T04:14:38;21.20;58.60
24744;DHT22;12844;52.110;5.548;2023-05-07T04:17:03;21.20;58.60
24744;DHT22;12844;52.110;5.548;2023-05-07T04:19:29;21.20;58.70
24744;DHT22;12844;52.110;5.548;2023-05-07T04:21:54;21.20;58.70
24744;DHT22;12844;52.110;5.548;2023-05-07T04:24:20;21.30;58.70
24744;DHT22;12844;52.110;5.548;2023-05-07T04:26:45;21.20;58.60
24744;DHT22;12844;52.110;5.548;2023-05-07T04:29:11;21.20;58.70
24744;DHT22;12844;52.110;5.548;2023-05-07T04:31:36;21.20;58.70
24744;DHT22;12844;52.110;5.548;2023-05-07T04:34:02;21.20;58.70
24744;DHT22;12844;52.110;5.548;2023-05-07T04:36:27;21.20;58.70
24744;DHT22;12844;52.110;5.548;2023-05-07T04:38:54;21.20;58.70
24744;DHT22;12844;52.110;5.548;2023-05-07T04:41:20;21.20;58.70
24744;DHT22;12844;52.110;5.548;2023-05-07T04:43:46;21.20;58.70
24744;DHT22;12844;52.110;5.548;2023-05-07T04:46:11;21.20;58.70
24744;DHT22;12844;52.110;5.548;2023-05-07T04:48:37;21.20;58.70
24744;DHT22;12844;52.110;5.548;2023-05-07T04:51:02;21.20;59.30
24744;DHT22;12844;52.110;5.548;2023-05-07T04:53:28;21.20;58.70
24744;DHT22;12844;52.110;5.548;2023-05-07T04:55:57;21.20;58.70
24744;DHT22;12844;52.110;5.548;2023-05-07T04:58:23;21.20;58.70
24744;DHT22;12844;52.110;5.548;2023-05-07T05:00:49;21.20;58.70
24744;DHT22;12844;52.110;5.548;2023-05-07T05:03:14;21.20;58.70
24744;DHT22;12844;52.110;5.548;2023-05-07T05:05:40;21.20;58.70
24744;DHT22;12844;52.110;5.548;2023-05-07T05:08:06;21.20;58.70
24744;DHT22;12844;52.110;5.548;2023-05-07T05:10:31;21.20;58.70
24744;DHT22;12844;52.110;5.548;2023-05-07T05:12:57;21.20;58.70
24744;DHT22;12844;52.110;5.548;2023-05-07T05:15:22;21.20;58.70
24744;DHT22;12844;52.110;5.548;2023-05-07T05:17:48;21.20;58.70
24744;DHT22;12844;52.110;5.548;2023-05-07T05:20:14;21.20;58.70
24744;DHT22;12844;52.110;5.548;2023-05-07T05:22:40;21.20;58.70
24744;DHT22;12844;52.110;5.548;2023-05-07T05:25:06;21.20;58.70
24744;DHT22;12844;52.110;5.548;2023-05-07T05:27:32;21.20;58.70
24744;DHT22;12844;52.110;5.548;2023-05-07T05:29:57;21.20;58.70
24744;DHT22;12844;52.110;5.548;2023-05-07T05:32:23;21.20;58.70
24744;DHT22;12844;52.110;5.548;2023-05-07T05:34:48;21.20;58.70
24744;DHT22;12844;52.110;5.548;2023-05-07T05:37:14;21.20;58.70
24744;DHT22;12844;52.110;5.548;2023-05-07T05:39:40;21.20;58.70
24744;DHT22;12844;52.110;5.548;2023-05-07T05:42:05;21.20;58.70
24744;DHT22;12844;52.110;5.548;2023-05-07T05:44:31;21.20;58.70
24744;DHT22;12844;52.110;5.548;2023-05-07T05:46:56;21.20;58.70
24744;DHT22;12844;52.110;5.548;2023-05-07T05:49:24;21.20;58.70
24744;DHT22;12844;52.110;5.548;2023-05-07T05:51:50;21.20;58.70
24744;DHT22;12844;52.110;5.548;2023-05-07T05:54:15;21.20;58.70
24744;DHT22;12844;52.110;5.548;2023-05-07T05:56:41;21.20;58.70
24744;DHT22;12844;52.110;5.548;2023-05-07T05:59:07;21.20;58.70
24744;DHT22;12844;52.110;5.548;2023-05-07T06:01:33;21.20;58.70
24744;DHT22;12844;52.110;5.548;2023-05-07T06:03:58;21.20;58.70
24744;DHT22;12844;52.110;5.548;2023-05-07T06:06:24;21.20;58.70
24744;DHT22;12844;52.110;5.548;2023-05-07T06:08:49;21.20;58.70
24744;DHT22;12844;52.110;5.548;2023-05-07T06:11:15;21.20;59.30
24744;DHT22;12844;52.110;5.548;2023-05-07T06:13:41;21.20;58.70
24744;DHT22;12844;52.110;5.548;2023-05-07T06:16:06;21.20;58.70
24744;DHT22;12844;52.110;5.548;2023-05-07T06:18:32;21.20;58.70
24744;DHT22;12844;52.110;5.548;2023-05-07T06:20:57;21.20;58.70
24744;DHT22;12844;52.110;5.548;2023-05-07T06:23:23;21.20;58.70
24744;DHT22;12844;52.110;5.548;2023-05-07T06:25:49;21.20;58.70
24744;DHT22;12844;52.110;5.548;2023-05-07T06:28:17;21.20;58.70
24744;DHT22;12844;52.110;5.548;2023-05-07T06:30:43;21.20;58.70
24744;DHT22;12844;52.110;5.548;2023-05-07T06:33:09;21.30;58.70
24744;DHT22;12844;52.110;5.548;2023-05-07T06:35:34;21.30;58.70
24744;DHT22;12844;52.110;5.548;2023-05-07T06:38:00;21.20;58.60
24744;DHT22;12844;52.110;5.548;2023-05-07T06:40:26;21.20;58.60
24744;DHT22;12844;52.110;5.548;2023-05-07T06:42:51;21.20;58.60
24744;DHT22;12844;52.110;5.548;2023-05-07T06:45:17;21.20;58.60
24744;DHT22;12844;52.110;5.548;2023-05-07T06:47:42;21.20;58.50
24744;DHT22;12844;52.110;5.548;2023-05-07T06:50:08;21.30;58.60
24744;DHT22;12844;52.110;5.548;2023-05-07T06:52:35;21.30;58.60
24744;DHT22;12844;52.110;5.548;2023-05-07T06:55:01;21.20;58.50
24744;DHT22;12844;52.110;5.548;2023-05-07T06:57:26;21.30;58.60
24744;DHT22;12844;52.110;5.548;2023-05-07T06:59:52;21.20;58.50
24744;DHT22;12844;52.110;5.548;2023-05-07T07:02:17;21.20;58.50
24744;DHT22;12844;52.110;5.548;2023-05-07T07:04:43;21.20;58.50
24744;DHT22;12844;52.110;5.548;2023-05-07T07:07:10;21.30;58.50
24744;DHT22;12844;52.110;5.548;2023-05-07T07:09:35;21.30;58.50
24744;DHT22;12844;52.110;5.548;2023-05-07T07:12:01;21.30;58.50
24744;DHT22;12844;52.110;5.548;2023-05-07T07:14:26;21.30;58.40
24744;DHT22;12844;52.110;5.548;2023-05-07T07:16:52;21.20;58.30
24744;DHT22;12844;52.110;5.548;2023-05-07T07:19:17;21.30;58.40
24744;DHT22;12844;52.110;5.548;2023-05-07T07:21:43;21.30;58.30
24744;DHT22;12844;52.110;5.548;2023-05-07T07:24:10;21.40;58.20
24744;DHT22;12844;52.110;5.548;2023-05-07T07:26:35;21.30;58.20
24744;DHT22;12844;52.110;5.548;2023-05-07T07:29:01;21.30;58.20
24744;DHT22;12844;52.110;5.548;2023-05-07T07:31:26;21.40;58.30
24744;DHT22;12844;52.110;5.548;2023-05-07T07:33:52;21.40;58.30
24744;DHT22;12844;52.110;5.548;2023-05-07T07:36:17;21.40;58.30
24744;DHT22;12844;52.110;5.548;2023-05-07T07:38:43;21.40;58.30
24744;DHT22;12844;52.110;5.548;2023-05-07T07:41:09;21.30;58.30
24744;DHT22;12844;52.110;5.548;2023-05-07T07:43:34;21.40;58.30
24744;DHT22;12844;52.110;5.548;2023-05-07T07:46:00;21.40;58.30
24744;DHT22;12844;52.110;5.548;2023-05-07T07:48:26;21.40;58.30
24744;DHT22;12844;52.110;5.548;2023-05-07T07:50:52;21.40;58.30
24744;DHT22;12844;52.110;5.548;2023-05-07T07:53:18;21.40;58.40
24744;DHT22;12844;52.110;5.548;2023-05-07T07:55:44;21.40;58.40
24744;DHT22;12844;52.110;5.548;2023-05-07T07:58:09;21.30;58.30
24744;DHT22;12844;52.110;5.548;2023-05-07T08:00:35;21.30;58.30
24744;DHT22;12844;52.110;5.548;2023-05-07T08:03:00;21.40;58.30
24744;DHT22;12844;52.110;5.548;2023-05-07T08:05:28;21.40;58.30
24744;DHT22;12844;52.110;5.548;2023-05-07T08:07:53;21.30;58.20
24744;DHT22;12844;52.110;5.548;2023-05-07T08:10:19;21.40;58.30
24744;DHT22;12844;52.110;5.548;2023-05-07T08:12:48;21.40;58.20
24744;DHT22;12844;52.110;5.548;2023-05-07T08:15:14;21.40;58.30
24744;DHT22;12844;52.110;5.548;2023-05-07T08:17:40;21.40;58.30
24744;DHT22;12844;52.110;5.548;2023-05-07T08:20:06;21.40;58.20
24744;DHT22;12844;52.110;5.548;2023-05-07T08:22:37;21.40;58.30
24744;DHT22;12844;52.110;5.548;2023-05-07T08:25:03;21.40;58.30
24744;DHT22;12844;52.110;5.548;2023-05-07T08:27:28;21.30;58.10
24744;DHT22;12844;52.110;5.548;2023-05-07T08:29:54;21.30;58.20
24744;DHT22;12844;52.110;5.548;2023-05-07T08:32:20;21.20;58.30
24744;DHT22;12844;52.110;5.548;2023-05-07T08:34:46;21.30;58.40
24744;DHT22;12844;52.110;5.548;2023-05-07T08:37:11;21.30;58.20
24744;DHT22;12844;52.110;5.548;2023-05-07T08:39:37;21.30;58.20
24744;DHT22;12844;52.110;5.548;2023-05-07T08:42:04;21.20;58.00
24744;DHT22;12844;52.110;5.548;2023-05-07T08:44:33;21.20;57.90
24744;DHT22;12844;52.110;5.548;2023-05-07T08:47:01;21.20;58.00
24744;DHT22;12844;52.110;5.548;2023-05-07T08:49:28;21.20;58.00
24744;DHT22;12844;52.110;5.548;2023-05-07T08:51:54;21.30;57.90
24744;DHT22;12844;52.110;5.548;2023-05-07T08:54:21;21.30;57.70
24744;DHT22;12844;52.110;5.548;2023-05-07T08:56:46;21.20;57.50
24744;DHT22;12844;52.110;5.548;2023-05-07T08:59:13;21.20;57.70
24744;DHT22;12844;52.110;5.548;2023-05-07T09:01:39;21.20;57.70
24744;DHT22;12844;52.110;5.548;2023-05-07T09:04:05;21.30;57.80
24744;DHT22;12844;52.110;5.548;2023-05-07T09:06:32;21.30;57.80
24744;DHT22;12844;52.110;5.548;2023-05-07T09:08:58;21.30;57.60
24744;DHT22;12844;52.110;5.548;2023-05-07T09:11:26;21.30;57.60
24744;DHT22;12844;52.110;5.548;2023-05-07T09:13:55;21.30;57.50
24744;DHT22;12844;52.110;5.548;2023-05-07T09:16:22;21.30;57.50
24744;DHT22;12844;52.110;5.548;2023-05-07T11:28:16;21.90;58.40
24744;DHT22;12844;52.110;5.548;2023-05-07T11:30:42;21.80;58.50
24744;DHT22;12844;52.110;5.548;2023-05-07T11:33:08;21.80;58.60
24744;DHT22;12844;52.110;5.548;2023-05-07T11:35:34;21.80;58.80
24744;DHT22;12844;52.110;5.548;2023-05-07T11:38:00;21.80;58.80
24744;DHT22;12844;52.110;5.548;2023-05-07T11:40:26;21.70;58.90
24744;DHT22;12844;52.110;5.548;2023-05-07T11:42:51;21.70;58.90
24744;DHT22;12844;52.110;5.548;2023-05-07T11:45:23;21.70;59.00
24744;DHT22;12844;52.110;5.548;2023-05-07T11:47:52;21.70;58.90
24744;DHT22;12844;52.110;5.548;2023-05-07T11:50:17;21.70;59.00
24744;DHT22;12844;52.110;5.548;2023-05-07T11:52:50;21.90;58.70
24744;DHT22;12844;52.110;5.548;2023-05-07T11:55:18;22.10;58.30
24744;DHT22;12844;52.110;5.548;2023-05-07T11:57:44;22.20;58.00
24744;DHT22;12844;52.110;5.548;2023-05-07T12:00:10;22.30;57.80
24744;DHT22;12844;52.110;5.548;2023-05-07T12:02:36;22.20;58.20
24744;DHT22;12844;52.110;5.548;2023-05-07T12:05:02;22.20;57.70
24744;DHT22;12844;52.110;5.548;2023-05-07T12:07:27;22.20;57.60
24744;DHT22;12844;52.110;5.548;2023-05-07T12:09:53;22.30;57.80
24744;DHT22;12844;52.110;5.548;2023-05-07T12:12:19;22.40;57.60
24744;DHT22;12844;52.110;5.548;2023-05-07T12:14:45;22.40;57.50
24744;DHT22;12844;52.110;5.548;2023-05-07T12:17:12;22.30;57.40
24744;DHT22;12844;52.110;5.548;2023-05-07T12:19:39;22.40;57.70
24744;DHT22;12844;52.110;5.548;2023-05-07T12:22:07;22.50;57.60
24744;DHT22;12844;52.110;5.548;2023-05-07T12:24:47;22.60;57.50
24744;DHT22;12844;52.110;5.548;2023-05-07T12:27:13;22.70;57.30
24744;DHT22;12844;52.110;5.548;2023-05-07T12:29:39;22.50;57.20
24744;DHT22;12844;52.110;5.548;2023-05-07T12:32:06;22.60;57.50
24744;DHT22;12844;52.110;5.548;2023-05-07T12:34:32;22.60;57.30
24744;DHT22;12844;52.110;5.548;2023-05-07T12:37:01;22.60;57.20
24744;DHT22;12844;52.110;5.548;2023-05-07T12:39:28;22.70;57.20
24744;DHT22;12844;52.110;5.548;2023-05-07T12:41:55;22.50;56.90
24744;DHT22;12844;52.110;5.548;2023-05-07T12:44:25;22.40;57.00
24744;DHT22;12844;52.110;5.548;2023-05-07T12:46:51;22.40;57.30
24744;DHT22;12844;52.110;5.548;2023-05-07T12:49:17;22.40;57.20
24744;DHT22;12844;52.110;5.548;2023-05-07T12:51:47;22.30;57.40
24744;DHT22;12844;52.110;5.548;2023-05-07T12:54:13;22.30;57.60
24744;DHT22;12844;52.110;5.548;2023-05-07T12:56:40;22.40;57.70
24744;DHT22;12844;52.110;5.548;2023-05-07T12:59:05;22.50;57.60
24744;DHT22;12844;52.110;5.548;2023-05-07T13:01:33;22.60;57.40
24744;DHT22;12844;52.110;5.548;2023-05-07T13:04:05;22.70;57.30
24744;DHT22;12844;52.110;5.548;2023-05-07T13:06:31;22.70;57.20
24744;DHT22;12844;52.110;5.548;2023-05-07T13:08:57;22.70;57.20
24744;DHT22;12844;52.110;5.548;2023-05-07T13:11:22;22.70;57.10
24744;DHT22;12844;52.110;5.548;2023-05-07T13:13:48;22.70;57.10
24744;DHT22;12844;52.110;5.548;2023-05-07T13:16:13;22.70;57.10
24744;DHT22;12844;52.110;5.548;2023-05-07T13:18:40;22.70;57.10
24744;DHT22;12844;52.110;5.548;2023-05-07T13:21:06;22.60;57.10
24744;DHT22;12844;52.110;5.548;2023-05-07T13:23:31;22.60;57.20
24744;DHT22;12844;52.110;5.548;2023-05-07T13:25:57;22.50;57.20
24744;DHT22;12844;52.110;5.548;2023-05-07T13:28:26;22.50;57.30
24744;DHT22;12844;52.110;5.548;2023-05-07T13:30:52;22.50;57.40
24744;DHT22;12844;52.110;5.548;2023-05-07T13:33:18;22.50;57.50
24744;DHT22;12844;52.110;5.548;2023-05-07T13:35:44;22.50;57.50
24744;DHT22;12844;52.110;5.548;2023-05-07T13:38:09;22.40;57.60
24744;DHT22;12844;52.110;5.548;2023-05-07T13:40:35;22.40;57.60
24744;DHT22;12844;52.110;5.548;2023-05-07T13:43:01;22.40;57.60
24744;DHT22;12844;52.110;5.548;2023-05-07T13:45:28;22.30;57.60
24744;DHT22;12844;52.110;5.548;2023-05-07T13:47:55;22.30;57.70
24744;DHT22;12844;52.110;5.548;2023-05-07T13:50:20;22.30;57.70
24744;DHT22;12844;52.110;5.548;2023-05-07T13:52:46;22.30;57.80
24744;DHT22;12844;52.110;5.548;2023-05-07T13:55:17;22.30;57.80
24744;DHT22;12844;52.110;5.548;2023-05-07T13:57:43;22.30;57.80
24744;DHT22;12844;52.110;5.548;2023-05-07T14:00:09;22.30;57.80
24744;DHT22;12844;52.110;5.548;2023-05-07T14:02:34;22.30;57.80
24744;DHT22;12844;52.110;5.548;2023-05-07T14:05:00;22.30;57.70
24744;DHT22;12844;52.110;5.548;2023-05-07T14:07:25;22.40;57.70
24744;DHT22;12844;52.110;5.548;2023-05-07T14:09:51;22.30;57.70
24744;DHT22;12844;52.110;5.548;2023-05-07T14:12:16;22.40;57.70
24744;DHT22;12844;52.110;5.548;2023-05-07T14:14:42;22.40;57.60
24744;DHT22;12844;52.110;5.548;2023-05-07T14:17:07;22.40;57.60
24744;DHT22;12844;52.110;5.548;2023-05-07T14:19:33;22.40;57.60
24744;DHT22;12844;52.110;5.548;2023-05-07T14:21:59;22.40;57.60
24744;DHT22;12844;52.110;5.548;2023-05-07T14:24:24;22.40;57.60
24744;DHT22;12844;52.110;5.548;2023-05-07T14:26:50;22.30;57.50
24744;DHT22;12844;52.110;5.548;2023-05-07T14:29:16;22.30;57.60
24744;DHT22;12844;52.110;5.548;2023-05-07T14:31:44;22.30;57.60
24744;DHT22;12844;52.110;5.548;2023-05-07T14:34:10;22.30;57.70
24744;DHT22;12844;52.110;5.548;2023-05-07T14:36:35;22.20;57.70
24744;DHT22;12844;52.110;5.548;2023-05-07T14:39:01;22.20;57.80
24744;DHT22;12844;52.110;5.548;2023-05-07T14:41:26;22.20;57.80
24744;DHT22;12844;52.110;5.548;2023-05-07T14:43:52;22.20;57.90
24744;DHT22;12844;52.110;5.548;2023-05-07T14:46:18;22.10;57.90
24744;DHT22;12844;52.110;5.548;2023-05-07T14:48:46;22.10;57.90
24744;DHT22;12844;52.110;5.548;2023-05-07T14:51:13;22.10;58.00
24744;DHT22;12844;52.110;5.548;2023-05-07T14:53:40;22.10;58.00
24744;DHT22;12844;52.110;5.548;2023-05-07T14:56:05;22.10;58.10
24744;DHT22;12844;52.110;5.548;2023-05-07T14:58:31;22.10;58.10
24744;DHT22;12844;52.110;5.548;2023-05-07T15:00:56;22.00;58.10
24744;DHT22;12844;52.110;5.548;2023-05-07T15:03:22;22.10;58.20
24744;DHT22;12844;52.110;5.548;2023-05-07T15:05:48;22.10;58.20
24744;DHT22;12844;52.110;5.548;2023-05-07T15:08:16;22.10;58.20
24744;DHT22;12844;52.110;5.548;2023-05-07T15:10:41;22.00;58.10
24744;DHT22;12844;52.110;5.548;2023-05-07T15:13:08;22.00;58.10
24744;DHT22;12844;52.110;5.548;2023-05-07T15:15:33;22.00;58.10
24744;DHT22;12844;52.110;5.548;2023-05-07T15:17:59;22.10;58.20
24744;DHT22;12844;52.110;5.548;2023-05-07T15:20:26;22.10;58.10
24744;DHT22;12844;52.110;5.548;2023-05-07T15:22:51;22.00;58.10
24744;DHT22;12844;52.110;5.548;2023-05-07T15:25:17;22.10;58.20
24744;DHT22;12844;52.110;5.548;2023-05-07T15:27:42;22.00;58.10
24744;DHT22;12844;52.110;5.548;2023-05-07T15:30:08;22.00;58.10
24744;DHT22;12844;52.110;5.548;2023-05-07T15:32:36;22.00;58.00
24744;DHT22;12844;52.110;5.548;2023-05-07T15:35:02;22.00;58.10
24744;DHT22;12844;52.110;5.548;2023-05-07T15:37:30;22.00;58.10
24744;DHT22;12844;52.110;5.548;2023-05-07T15:39:56;22.00;58.10
24744;DHT22;12844;52.110;5.548;2023-05-07T15:42:22;22.00;58.20
24744;DHT22;12844;52.110;5.548;2023-05-07T15:44:47;22.00;58.20
24744;DHT22;12844;52.110;5.548;2023-05-07T15:47:14;21.90;58.20
24744;DHT22;12844;52.110;5.548;2023-05-07T15:49:41;21.90;58.20
24744;DHT22;12844;52.110;5.548;2023-05-07T15:52:06;21.90;58.30
24744;DHT22;12844;52.110;5.548;2023-05-07T15:54:32;21.90;58.30
24744;DHT22;12844;52.110;5.548;2023-05-07T15:56:57;21.90;58.30
24744;DHT22;12844;52.110;5.548;2023-05-07T15:59:23;21.80;58.30
24744;DHT22;12844;52.110;5.548;2023-05-07T16:01:48;21.80;58.40
24744;DHT22;12844;52.110;5.548;2023-05-07T16:04:14;21.80;58.40
24744;DHT22;12844;52.110;5.548;2023-05-07T16:06:39;21.80;58.40
24744;DHT22;12844;52.110;5.548;2023-05-07T16:09:05;21.80;58.50
24744;DHT22;12844;52.110;5.548;2023-05-07T16:11:31;21.70;58.50
24744;DHT22;12844;52.110;5.548;2023-05-07T16:13:58;21.80;58.60
24744;DHT22;12844;52.110;5.548;2023-05-07T16:16:25;21.70;58.60
24744;DHT22;12844;52.110;5.548;2023-05-07T16:18:54;21.70;58.60
24744;DHT22;12844;52.110;5.548;2023-05-07T16:21:20;21.70;58.60
24744;DHT22;12844;52.110;5.548;2023-05-07T16:23:46;21.70;58.60
24744;DHT22;12844;52.110;5.548;2023-05-07T16:26:12;21.70;58.60
24744;DHT22;12844;52.110;5.548;2023-05-07T16:28:39;21.70;58.60
24744;DHT22;12844;52.110;5.548;2023-05-07T16:31:07;21.70;58.60
24744;DHT22;12844;52.110;5.548;2023-05-07T16:33:32;21.70;58.70
24744;DHT22;12844;52.110;5.548;2023-05-07T16:35:58;21.70;58.60
24744;DHT22;12844;52.110;5.548;2023-05-07T16:38:24;21.70;58.70
24744;DHT22;12844;52.110;5.548;2023-05-07T16:40:51;21.70;58.70
24744;DHT22;12844;52.110;5.548;2023-05-07T16:43:17;21.70;58.70
24744;DHT22;12844;52.110;5.548;2023-05-07T16:45:43;21.70;58.70
24744;DHT22;12844;52.110;5.548;2023-05-07T16:48:08;21.70;58.70
24744;DHT22;12844;52.110;5.548;2023-05-07T16:50:34;21.70;58.70
24744;DHT22;12844;52.110;5.548;2023-05-07T16:52:59;21.70;58.70
24744;DHT22;12844;52.110;5.548;2023-05-07T16:55:25;21.60;58.60
24744;DHT22;12844;52.110;5.548;2023-05-07T16:57:50;21.60;58.60
24744;DHT22;12844;52.110;5.548;2023-05-07T17:00:16;21.60;58.60
24744;DHT22;12844;52.110;5.548;2023-05-07T17:02:42;21.60;58.60
24744;DHT22;12844;52.110;5.548;2023-05-07T17:05:08;21.60;58.60
24744;DHT22;12844;52.110;5.548;2023-05-07T17:07:33;21.60;58.70
24744;DHT22;12844;52.110;5.548;2023-05-07T17:10:00;21.60;58.70
24744;DHT22;12844;52.110;5.548;2023-05-07T17:12:26;21.60;58.60
24744;DHT22;12844;52.110;5.548;2023-05-07T17:14:51;21.60;58.70
24744;DHT22;12844;52.110;5.548;2023-05-07T17:17:17;21.60;58.60
24744;DHT22;12844;52.110;5.548;2023-05-07T17:19:43;21.60;58.60
24744;DHT22;12844;52.110;5.548;2023-05-07T17:22:08;21.60;58.70
24744;DHT22;12844;52.110;5.548;2023-05-07T17:24:34;21.60;58.60
24744;DHT22;12844;52.110;5.548;2023-05-07T17:26:59;21.60;58.70
24744;DHT22;12844;52.110;5.548;2023-05-07T17:29:25;21.60;58.60
24744;DHT22;12844;52.110;5.548;2023-05-07T17:31:50;21.60;58.60